sensor_id;sensor_type;location;lat;lon;timestamp;P1;durP1;ratioP1;P2;durP2;ratioP2
25980;SDS011;13772;52.996;9.124;2022-12-05T06:21:12;20.70;;;13.35;;
25980;SDS011;13772;52.996;9.124;2022-12-05T06:23:38;19.13;;;12.52;;
25980;SDS011;13772;52.996;9.124;2022-12-05T06:26:03;19.60;;;12.77;;
25980;SDS011;13772;52.996;9.124;2022-12-05T06:28:29;19.08;;;12.98;;
25980;SDS011;13772;52.996;9.124;2022-12-05T06:30:54;18.52;;;12.68;;
25980;SDS011;13772;52.996;9.124;2022-12-05T06:33:20;17.40;;;12.88;;
25980;SDS011;13772;52.996;9.124;2022-12-05T06:35:45;21.88;;;14.13;;
25980;SDS011;13772;52.996;9.124;2022-12-05T06:38:10;22.67;;;13.50;;
25980;SDS011;13772;52.996;9.124;2022-12-05T06:40:43;22.52;;;14.10;;
25980;SDS011;13772;52.996;9.124;2022-12-05T06:43:09;21.67;;;13.15;;
25980;SDS011;13772;52.996;9.124;2022-12-05T06:45:36;24.77;;;13.52;;
25980;SDS011;13772;52.996;9.124;2022-12-05T06:48:01;27.40;;;14.82;;
25980;SDS011;13772;52.996;9.124;2022-12-05T06:50:26;24.30;;;13.50;;
25980;SDS011;13772;52.996;9.124;2022-12-05T06:52:51;22.98;;;13.55;;
25980;SDS011;13772;52.996;9.124;2022-12-05T06:55:17;22.83;;;13.18;;
25980;SDS011;13772;52.996;9.124;2022-12-05T06:57:42;27.77;;;14.35;;
25980;SDS011;13772;52.996;9.124;2022-12-05T07:00:07;25.75;;;14.57;;
25980;SDS011;13772;52.996;9.124;2022-12-05T07:02:51;25.90;;;14.98;;
25980;SDS011;13772;52.996;9.124;2022-12-05T07:05:17;26.05;;;14.05;;
25980;SDS011;13772;52.996;9.124;2022-12-05T07:07:42;26.83;;;15.20;;
25980;SDS011;13772;52.996;9.124;2022-12-05T07:10:08;28.25;;;15.13;;
25980;SDS011;13772;52.996;9.124;2022-12-05T07:12:33;25.13;;;13.55;;
25980;SDS011;13772;52.996;9.124;2022-12-05T07:14:59;26.05;;;14.30;;
25980;SDS011;13772;52.996;9.124;2022-12-05T07:17:25;24.92;;;14.02;;
25980;SDS011;13772;52.996;9.124;2022-12-05T07:19:51;25.13;;;13.75;;
25980;SDS011;13772;52.996;9.124;2022-12-05T07:22:16;26.95;;;14.10;;
25980;SDS011;13772;52.996;9.124;2022-12-05T07:24:43;26.63;;;14.50;;
25980;SDS011;13772;52.996;9.124;2022-12-05T07:27:08;26.67;;;14.50;;
25980;SDS011;13772;52.996;9.124;2022-12-05T07:29:33;27.60;;;15.10;;
25980;SDS011;13772;52.996;9.124;2022-12-05T07:31:58;27.00;;;14.48;;
25980;SDS011;13772;52.996;9.124;2022-12-05T07:34:24;30.17;;;14.77;;
25980;SDS011;13772;52.996;9.124;2022-12-05T07:36:49;25.48;;;13.65;;
25980;SDS011;13772;52.996;9.124;2022-12-05T07:39:14;26.98;;;14.73;;
25980;SDS011;13772;52.996;9.124;2022-12-05T07:41:40;26.42;;;13.45;;
25980;SDS011;13772;52.996;9.124;2022-12-05T07:44:08;25.67;;;13.60;;
25980;SDS011;13772;52.996;9.124;2022-12-05T07:46:34;25.13;;;12.68;;
25980;SDS011;13772;52.996;9.124;2022-12-05T07:48:59;20.17;;;12.00;;
25980;SDS011;13772;52.996;9.124;2022-12-05T07:51:25;23.30;;;12.75;;
25980;SDS011;13772;52.996;9.124;2022-12-05T07:53:50;23.30;;;12.60;;
25980;SDS011;13772;52.996;9.124;2022-12-05T07:56:16;23.73;;;12.90;;
25980;SDS011;13772;52.996;9.124;2022-12-05T07:58:42;21.42;;;11.50;;
25980;SDS011;13772;52.996;9.124;2022-12-05T08:01:12;20.77;;;11.20;;
25980;SDS011;13772;52.996;9.124;2022-12-05T08:03:37;20.90;;;11.75;;
25980;SDS011;13772;52.996;9.124;2022-12-05T08:06:04;18.85;;;10.98;;
25980;SDS011;13772;52.996;9.124;2022-12-05T08:08:29;23.10;;;10.98;;
25980;SDS011;13772;52.996;9.124;2022-12-05T08:10:54;17.73;;;10.63;;
25980;SDS011;13772;52.996;9.124;2022-12-05T08:13:20;18.80;;;10.20;;
25980;SDS011;13772;52.996;9.124;2022-12-05T08:15:45;18.35;;;10.80;;
25980;SDS011;13772;52.996;9.124;2022-12-05T08:18:10;17.70;;;10.65;;
25980;SDS011;13772;52.996;9.124;2022-12-05T08:20:35;19.15;;;11.07;;
25980;SDS011;13772;52.996;9.124;2022-12-05T08:23:01;19.10;;;10.48;;
25980;SDS011;13772;52.996;9.124;2022-12-05T08:25:26;19.48;;;11.50;;
25980;SDS011;13772;52.996;9.124;2022-12-05T08:27:51;21.98;;;12.02;;
25980;SDS011;13772;52.996;9.124;2022-12-05T08:30:16;19.52;;;11.32;;
25980;SDS011;13772;52.996;9.124;2022-12-05T08:32:42;22.77;;;11.63;;
25980;SDS011;13772;52.996;9.124;2022-12-05T08:35:07;24.88;;;13.75;;
25980;SDS011;13772;52.996;9.124;2022-12-05T08:37:33;22.08;;;12.55;;
25980;SDS011;13772;52.996;9.124;2022-12-05T08:39:58;19.60;;;10.93;;
25980;SDS011;13772;52.996;9.124;2022-12-05T08:42:24;18.45;;;11.40;;
25980;SDS011;13772;52.996;9.124;2022-12-05T08:44:49;18.98;;;11.23;;
25980;SDS011;13772;52.996;9.124;2022-12-05T08:47:15;20.35;;;11.65;;
25980;SDS011;13772;52.996;9.124;2022-12-05T08:49:41;18.00;;;10.75;;
25980;SDS011;13772;52.996;9.124;2022-12-05T08:52:06;19.77;;;10.68;;
25980;SDS011;13772;52.996;9.124;2022-12-05T08:54:32;20.77;;;11.80;;
25980;SDS011;13772;52.996;9.124;2022-12-05T08:56:57;22.67;;;13.35;;
25980;SDS011;13772;52.996;9.124;2022-12-05T08:59:23;21.45;;;12.07;;
25980;SDS011;13772;52.996;9.124;2022-12-05T09:01:49;18.90;;;12.18;;
25980;SDS011;13772;52.996;9.124;2022-12-05T09:04:14;19.73;;;11.68;;
25980;SDS011;13772;52.996;9.124;2022-12-05T09:06:39;20.20;;;12.23;;
25980;SDS011;13772;52.996;9.124;2022-12-05T09:09:05;20.83;;;12.95;;
25980;SDS011;13772;52.996;9.124;2022-12-05T09:11:32;18.35;;;11.68;;
25980;SDS011;13772;52.996;9.124;2022-12-05T09:13:59;20.90;;;11.73;;
25980;SDS011;13772;52.996;9.124;2022-12-05T09:16:26;18.98;;;12.02;;
25980;SDS011;13772;52.996;9.124;2022-12-05T09:18:53;21.02;;;12.00;;
25980;SDS011;13772;52.996;9.124;2022-12-05T09:21:19;22.27;;;12.25;;
25980;SDS011;13772;52.996;9.124;2022-12-05T09:23:45;21.27;;;12.10;;
25980;SDS011;13772;52.996;9.124;2022-12-05T09:26:11;24.65;;;13.05;;
25980;SDS011;13772;52.996;9.124;2022-12-05T09:28:37;24.17;;;13.30;;
25980;SDS011;13772;52.996;9.124;2022-12-05T09:31:04;23.42;;;12.95;;
25980;SDS011;13772;52.996;9.124;2022-12-05T09:33:30;22.33;;;13.40;;
25980;SDS011;13772;52.996;9.124;2022-12-05T09:35:55;22.65;;;12.48;;
25980;SDS011;13772;52.996;9.124;2022-12-05T09:38:21;22.73;;;13.10;;
25980;SDS011;13772;52.996;9.124;2022-12-05T09:40:48;23.75;;;14.10;;
25980;SDS011;13772;52.996;9.124;2022-12-05T09:43:21;21.65;;;12.80;;
25980;SDS011;13772;52.996;9.124;2022-12-05T09:48:13;22.20;;;13.05;;
25980;SDS011;13772;52.996;9.124;2022-12-05T09:50:47;25.55;;;14.75;;
25980;SDS011;13772;52.996;9.124;2022-12-05T09:56:20;22.90;;;13.68;;
25980;SDS011;13772;52.996;9.124;2022-12-05T10:06:27;23.90;;;14.13;;
25980;SDS011;13772;52.996;9.124;2022-12-05T10:11:46;22.37;;;14.30;;
25980;SDS011;13772;52.996;9.124;2022-12-05T10:17:32;27.60;;;14.70;;
25980;SDS011;13772;52.996;9.124;2022-12-05T10:19:57;26.45;;;14.88;;
25980;SDS011;13772;52.996;9.124;2022-12-05T10:22:33;24.67;;;14.88;;
25980;SDS011;13772;52.996;9.124;2022-12-05T10:25:02;26.17;;;15.18;;
25980;SDS011;13772;52.996;9.124;2022-12-05T10:27:32;26.92;;;15.57;;
25980;SDS011;13772;52.996;9.124;2022-12-05T10:30:03;26.02;;;15.25;;
25980;SDS011;13772;52.996;9.124;2022-12-05T10:32:50;24.25;;;15.65;;
25980;SDS011;13772;52.996;9.124;2022-12-05T10:35:22;24.20;;;15.43;;
25980;SDS011;13772;52.996;9.124;2022-12-05T10:37:52;23.85;;;14.95;;
25980;SDS011;13772;52.996;9.124;2022-12-05T10:40:18;24.05;;;14.20;;
25980;SDS011;13772;52.996;9.124;2022-12-05T10:42:43;24.80;;;14.15;;
25980;SDS011;13772;52.996;9.124;2022-12-05T10:45:13;23.77;;;14.63;;
25980;SDS011;13772;52.996;9.124;2022-12-05T10:50:05;26.95;;;15.75;;
25980;SDS011;13772;52.996;9.124;2022-12-05T10:52:31;23.30;;;14.50;;
25980;SDS011;13772;52.996;9.124;2022-12-05T10:54:59;25.92;;;14.85;;
25980;SDS011;13772;52.996;9.124;2022-12-05T10:57:27;26.20;;;15.73;;
25980;SDS011;13772;52.996;9.124;2022-12-05T10:59:54;27.83;;;15.85;;
25980;SDS011;13772;52.996;9.124;2022-12-05T11:02:24;26.30;;;15.93;;
25980;SDS011;13772;52.996;9.124;2022-12-05T11:04:50;25.55;;;15.07;;
25980;SDS011;13772;52.996;9.124;2022-12-05T11:07:23;23.38;;;14.65;;
25980;SDS011;13772;52.996;9.124;2022-12-05T11:09:48;25.67;;;14.48;;
25980;SDS011;13772;52.996;9.124;2022-12-05T11:12:20;25.27;;;14.68;;
25980;SDS011;13772;52.996;9.124;2022-12-05T11:14:57;24.45;;;14.57;;
25980;SDS011;13772;52.996;9.124;2022-12-05T11:17:24;23.92;;;14.65;;
25980;SDS011;13772;52.996;9.124;2022-12-05T11:19:49;23.40;;;14.13;;
25980;SDS011;13772;52.996;9.124;2022-12-05T11:22:15;23.35;;;13.57;;
25980;SDS011;13772;52.996;9.124;2022-12-05T11:24:40;23.02;;;13.90;;
25980;SDS011;13772;52.996;9.124;2022-12-05T11:29:36;23.75;;;14.00;;
25980;SDS011;13772;52.996;9.124;2022-12-05T11:32:07;22.05;;;13.85;;
25980;SDS011;13772;52.996;9.124;2022-12-05T11:34:41;27.85;;;15.10;;
25980;SDS011;13772;52.996;9.124;2022-12-05T11:37:12;25.40;;;15.00;;
25980;SDS011;13772;52.996;9.124;2022-12-05T11:39:38;25.35;;;15.77;;
25980;SDS011;13772;52.996;9.124;2022-12-05T11:42:25;26.88;;;15.15;;
25980;SDS011;13772;52.996;9.124;2022-12-05T11:45:05;27.92;;;16.40;;
25980;SDS011;13772;52.996;9.124;2022-12-05T11:55:14;26.35;;;15.75;;
25980;SDS011;13772;52.996;9.124;2022-12-05T12:00:14;25.67;;;15.05;;
25980;SDS011;13772;52.996;9.124;2022-12-05T12:03:03;22.50;;;14.32;;
25980;SDS011;13772;52.996;9.124;2022-12-05T12:10:39;26.10;;;15.13;;
25980;SDS011;13772;52.996;9.124;2022-12-05T12:15:50;24.05;;;14.63;;
25980;SDS011;13772;52.996;9.124;2022-12-05T12:23:29;26.70;;;15.20;;
25980;SDS011;13772;52.996;9.124;2022-12-05T12:31:14;24.73;;;14.65;;
25980;SDS011;13772;52.996;9.124;2022-12-05T12:33:43;26.92;;;15.07;;
25980;SDS011;13772;52.996;9.124;2022-12-05T12:38:43;27.08;;;14.68;;
25980;SDS011;13772;52.996;9.124;2022-12-05T12:44:15;27.02;;;15.77;;
25980;SDS011;13772;52.996;9.124;2022-12-05T12:46:34;25.90;;;14.27;;
25980;SDS011;13772;52.996;9.124;2022-12-05T12:51:51;23.27;;;13.88;;
25980;SDS011;13772;52.996;9.124;2022-12-05T12:56:48;23.92;;;14.00;;
25980;SDS011;13772;52.996;9.124;2022-12-05T13:01:49;22.08;;;14.05;;
25980;SDS011;13772;52.996;9.124;2022-12-05T13:04:19;23.58;;;13.82;;
25980;SDS011;13772;52.996;9.124;2022-12-05T13:06:48;25.15;;;15.18;;
25980;SDS011;13772;52.996;9.124;2022-12-05T13:09:35;21.50;;;12.85;;
25980;SDS011;13772;52.996;9.124;2022-12-05T13:12:07;22.25;;;13.63;;
25980;SDS011;13772;52.996;9.124;2022-12-05T13:14:34;23.73;;;13.57;;
25980;SDS011;13772;52.996;9.124;2022-12-05T13:17:01;21.20;;;12.98;;
25980;SDS011;13772;52.996;9.124;2022-12-05T13:19:29;19.52;;;12.18;;
25980;SDS011;13772;52.996;9.124;2022-12-05T13:22:01;20.48;;;11.18;;
25980;SDS011;13772;52.996;9.124;2022-12-05T13:24:27;22.15;;;13.45;;
25980;SDS011;13772;52.996;9.124;2022-12-05T13:26:52;19.83;;;12.40;;
25980;SDS011;13772;52.996;9.124;2022-12-05T13:29:26;21.02;;;13.30;;
25980;SDS011;13772;52.996;9.124;2022-12-05T13:31:53;21.23;;;12.25;;
25980;SDS011;13772;52.996;9.124;2022-12-05T13:36:58;19.30;;;12.40;;
25980;SDS011;13772;52.996;9.124;2022-12-05T13:39:50;18.58;;;11.85;;
25980;SDS011;13772;52.996;9.124;2022-12-05T13:42:34;19.00;;;11.43;;
25980;SDS011;13772;52.996;9.124;2022-12-05T13:50:13;22.30;;;14.13;;
25980;SDS011;13772;52.996;9.124;2022-12-05T13:52:42;21.42;;;12.98;;
25980;SDS011;13772;52.996;9.124;2022-12-05T13:57:54;19.83;;;12.93;;
25980;SDS011;13772;52.996;9.124;2022-12-05T14:00:22;19.70;;;12.82;;
25980;SDS011;13772;52.996;9.124;2022-12-05T14:02:48;20.45;;;12.80;;
25980;SDS011;13772;52.996;9.124;2022-12-05T14:10:15;19.33;;;12.23;;
25980;SDS011;13772;52.996;9.124;2022-12-05T14:15:22;20.67;;;13.35;;
25980;SDS011;13772;52.996;9.124;2022-12-05T14:17:48;18.50;;;12.20;;
25980;SDS011;13772;52.996;9.124;2022-12-05T14:20:24;18.30;;;11.65;;
25980;SDS011;13772;52.996;9.124;2022-12-05T14:33:30;15.25;;;9.73;;
25980;SDS011;13772;52.996;9.124;2022-12-05T14:35:56;13.70;;;8.98;;
25980;SDS011;13772;52.996;9.124;2022-12-05T14:38:29;15.93;;;9.77;;
25980;SDS011;13772;52.996;9.124;2022-12-05T14:40:55;15.77;;;9.52;;
25980;SDS011;13772;52.996;9.124;2022-12-05T14:43:30;18.05;;;9.82;;
25980;SDS011;13772;52.996;9.124;2022-12-05T14:45:58;15.43;;;8.98;;
25980;SDS011;13772;52.996;9.124;2022-12-05T14:48:35;18.73;;;11.05;;
25980;SDS011;13772;52.996;9.124;2022-12-05T14:51:01;18.40;;;10.55;;
25980;SDS011;13772;52.996;9.124;2022-12-05T15:00:54;15.50;;;11.20;;
25980;SDS011;13772;52.996;9.124;2022-12-05T15:03:22;17.63;;;10.73;;
25980;SDS011;13772;52.996;9.124;2022-12-05T15:05:49;22.73;;;14.63;;
25980;SDS011;13772;52.996;9.124;2022-12-05T15:08:14;21.35;;;12.88;;
25980;SDS011;13772;52.996;9.124;2022-12-05T15:10:40;20.17;;;12.88;;
25980;SDS011;13772;52.996;9.124;2022-12-05T15:13:13;18.42;;;12.55;;
25980;SDS011;13772;52.996;9.124;2022-12-05T15:15:42;18.92;;;11.70;;
25980;SDS011;13772;52.996;9.124;2022-12-05T15:18:11;22.20;;;12.23;;
25980;SDS011;13772;52.996;9.124;2022-12-05T15:20:52;20.58;;;13.38;;
25980;SDS011;13772;52.996;9.124;2022-12-05T15:26:03;19.17;;;13.10;;
25980;SDS011;13772;52.996;9.124;2022-12-05T15:28:29;16.90;;;11.23;;
25980;SDS011;13772;52.996;9.124;2022-12-05T15:30:54;20.20;;;12.38;;
25980;SDS011;13772;52.996;9.124;2022-12-05T15:33:20;17.70;;;11.40;;
25980;SDS011;13772;52.996;9.124;2022-12-05T15:35:46;15.40;;;10.27;;
25980;SDS011;13772;52.996;9.124;2022-12-05T15:38:16;17.33;;;11.77;;
25980;SDS011;13772;52.996;9.124;2022-12-05T15:40:44;17.85;;;11.10;;
25980;SDS011;13772;52.996;9.124;2022-12-05T15:45:48;18.58;;;11.63;;
25980;SDS011;13772;52.996;9.124;2022-12-05T15:48:14;18.60;;;12.10;;
25980;SDS011;13772;52.996;9.124;2022-12-05T15:50:40;20.58;;;12.90;;
25980;SDS011;13772;52.996;9.124;2022-12-05T15:53:11;22.20;;;12.85;;
25980;SDS011;13772;52.996;9.124;2022-12-05T15:55:46;20.90;;;12.70;;
25980;SDS011;13772;52.996;9.124;2022-12-05T15:58:31;21.63;;;12.18;;
25980;SDS011;13772;52.996;9.124;2022-12-05T16:01:01;19.58;;;12.18;;
25980;SDS011;13772;52.996;9.124;2022-12-05T16:03:46;19.50;;;11.85;;
25980;SDS011;13772;52.996;9.124;2022-12-05T16:06:19;19.38;;;12.45;;
25980;SDS011;13772;52.996;9.124;2022-12-05T16:08:46;18.03;;;12.37;;
25980;SDS011;13772;52.996;9.124;2022-12-05T16:11:12;21.13;;;13.75;;
25980;SDS011;13772;52.996;9.124;2022-12-05T16:13:45;22.60;;;14.00;;
25980;SDS011;13772;52.996;9.124;2022-12-05T16:16:15;22.20;;;13.82;;
25980;SDS011;13772;52.996;9.124;2022-12-05T16:18:47;20.90;;;13.32;;
25980;SDS011;13772;52.996;9.124;2022-12-05T16:24:16;19.42;;;12.02;;
25980;SDS011;13772;52.996;9.124;2022-12-05T16:26:42;21.88;;;12.13;;
25980;SDS011;13772;52.996;9.124;2022-12-05T16:29:24;17.58;;;11.35;;
25980;SDS011;13772;52.996;9.124;2022-12-05T16:31:52;18.52;;;10.43;;
25980;SDS011;13772;52.996;9.124;2022-12-05T16:34:17;14.68;;;9.60;;
25980;SDS011;13772;52.996;9.124;2022-12-05T16:36:46;13.82;;;9.98;;
25980;SDS011;13772;52.996;9.124;2022-12-05T16:39:13;17.93;;;10.83;;
25980;SDS011;13772;52.996;9.124;2022-12-05T16:41:39;15.77;;;9.43;;
25980;SDS011;13772;52.996;9.124;2022-12-05T16:44:07;13.70;;;9.23;;
25980;SDS011;13772;52.996;9.124;2022-12-05T16:46:50;14.57;;;9.02;;
25980;SDS011;13772;52.996;9.124;2022-12-05T16:54:32;13.57;;;8.57;;
25980;SDS011;13772;52.996;9.124;2022-12-05T16:56:57;13.00;;;8.77;;
25980;SDS011;13772;52.996;9.124;2022-12-05T16:59:24;14.63;;;8.37;;
25980;SDS011;13772;52.996;9.124;2022-12-05T17:01:50;12.98;;;8.38;;
25980;SDS011;13772;52.996;9.124;2022-12-05T17:04:16;12.83;;;8.27;;
25980;SDS011;13772;52.996;9.124;2022-12-05T17:06:41;13.95;;;8.50;;
25980;SDS011;13772;52.996;9.124;2022-12-05T17:09:06;12.48;;;8.25;;
25980;SDS011;13772;52.996;9.124;2022-12-05T17:11:32;14.23;;;9.47;;
25980;SDS011;13772;52.996;9.124;2022-12-05T17:13:59;12.60;;;8.38;;
25980;SDS011;13772;52.996;9.124;2022-12-05T17:16:25;15.90;;;8.90;;
25980;SDS011;13772;52.996;9.124;2022-12-05T17:18:50;15.17;;;9.67;;
25980;SDS011;13772;52.996;9.124;2022-12-05T17:21:17;12.65;;;8.88;;
25980;SDS011;13772;52.996;9.124;2022-12-05T17:23:43;13.98;;;8.98;;
25980;SDS011;13772;52.996;9.124;2022-12-05T17:26:11;14.68;;;9.65;;
25980;SDS011;13772;52.996;9.124;2022-12-05T17:28:37;14.45;;;9.57;;
25980;SDS011;13772;52.996;9.124;2022-12-05T17:31:03;15.15;;;9.55;;
25980;SDS011;13772;52.996;9.124;2022-12-05T17:33:28;14.88;;;9.07;;
25980;SDS011;13772;52.996;9.124;2022-12-05T17:35:53;17.63;;;10.02;;
25980;SDS011;13772;52.996;9.124;2022-12-05T17:38:19;14.07;;;9.30;;
25980;SDS011;13772;52.996;9.124;2022-12-05T17:40:44;14.85;;;10.25;;
25980;SDS011;13772;52.996;9.124;2022-12-05T17:43:13;16.48;;;10.18;;
25980;SDS011;13772;52.996;9.124;2022-12-05T17:45:40;13.93;;;9.57;;
25980;SDS011;13772;52.996;9.124;2022-12-05T17:48:05;15.45;;;9.80;;
25980;SDS011;13772;52.996;9.124;2022-12-05T17:50:30;15.60;;;10.23;;
25980;SDS011;13772;52.996;9.124;2022-12-05T17:52:56;17.98;;;10.60;;
25980;SDS011;13772;52.996;9.124;2022-12-05T17:55:23;16.43;;;10.07;;
25980;SDS011;13772;52.996;9.124;2022-12-05T17:57:49;18.53;;;9.37;;
25980;SDS011;13772;52.996;9.124;2022-12-05T18:00:15;13.80;;;8.60;;
25980;SDS011;13772;52.996;9.124;2022-12-05T18:02:41;15.13;;;10.07;;
25980;SDS011;13772;52.996;9.124;2022-12-05T18:05:07;16.63;;;9.85;;
25980;SDS011;13772;52.996;9.124;2022-12-05T18:07:33;17.30;;;10.50;;
25980;SDS011;13772;52.996;9.124;2022-12-05T18:09:59;17.75;;;10.93;;
25980;SDS011;13772;52.996;9.124;2022-12-05T18:12:24;18.95;;;12.63;;
25980;SDS011;13772;52.996;9.124;2022-12-05T18:14:49;20.15;;;12.45;;
25980;SDS011;13772;52.996;9.124;2022-12-05T18:17:14;21.50;;;11.95;;
25980;SDS011;13772;52.996;9.124;2022-12-05T18:19:40;21.95;;;12.43;;
25980;SDS011;13772;52.996;9.124;2022-12-05T18:22:06;19.50;;;11.32;;
25980;SDS011;13772;52.996;9.124;2022-12-05T18:24:31;16.55;;;10.65;;
25980;SDS011;13772;52.996;9.124;2022-12-05T18:26:57;17.30;;;11.87;;
25980;SDS011;13772;52.996;9.124;2022-12-05T18:29:24;15.23;;;10.53;;
25980;SDS011;13772;52.996;9.124;2022-12-05T18:31:49;18.20;;;11.90;;
25980;SDS011;13772;52.996;9.124;2022-12-05T18:34:15;22.60;;;14.52;;
25980;SDS011;13772;52.996;9.124;2022-12-05T18:36:40;30.45;;;18.20;;
25980;SDS011;13772;52.996;9.124;2022-12-05T18:39:05;31.58;;;17.05;;
25980;SDS011;13772;52.996;9.124;2022-12-05T18:41:31;29.30;;;15.10;;
25980;SDS011;13772;52.996;9.124;2022-12-05T18:43:56;25.17;;;14.57;;
25980;SDS011;13772;52.996;9.124;2022-12-05T18:46:21;24.00;;;14.45;;
25980;SDS011;13772;52.996;9.124;2022-12-05T18:48:47;20.80;;;13.65;;
25980;SDS011;13772;52.996;9.124;2022-12-05T18:51:14;18.53;;;12.47;;
25980;SDS011;13772;52.996;9.124;2022-12-05T18:53:39;18.47;;;12.37;;
25980;SDS011;13772;52.996;9.124;2022-12-05T18:56:06;19.48;;;12.00;;
25980;SDS011;13772;52.996;9.124;2022-12-05T18:58:31;20.88;;;11.82;;
25980;SDS011;13772;52.996;9.124;2022-12-05T19:03:30;20.77;;;13.77;;
25980;SDS011;13772;52.996;9.124;2022-12-05T19:05:55;21.43;;;13.53;;
25980;SDS011;13772;52.996;9.124;2022-12-05T19:08:20;23.63;;;14.20;;
25980;SDS011;13772;52.996;9.124;2022-12-05T19:10:46;23.90;;;14.27;;
25980;SDS011;13772;52.996;9.124;2022-12-05T19:13:11;24.42;;;15.00;;
25980;SDS011;13772;52.996;9.124;2022-12-05T19:15:37;21.58;;;13.35;;
25980;SDS011;13772;52.996;9.124;2022-12-05T19:18:03;25.23;;;14.87;;
25980;SDS011;13772;52.996;9.124;2022-12-05T19:20:28;21.17;;;13.80;;
25980;SDS011;13772;52.996;9.124;2022-12-05T19:22:53;20.50;;;13.13;;
25980;SDS011;13772;52.996;9.124;2022-12-05T19:25:19;20.53;;;13.63;;
25980;SDS011;13772;52.996;9.124;2022-12-05T19:27:44;23.83;;;13.32;;
25980;SDS011;13772;52.996;9.124;2022-12-05T19:30:09;24.87;;;14.37;;
25980;SDS011;13772;52.996;9.124;2022-12-05T19:32:34;19.63;;;12.43;;
25980;SDS011;13772;52.996;9.124;2022-12-05T19:35:00;21.70;;;13.15;;
25980;SDS011;13772;52.996;9.124;2022-12-05T19:37:25;20.00;;;12.05;;
25980;SDS011;13772;52.996;9.124;2022-12-05T19:39:50;19.30;;;11.85;;
25980;SDS011;13772;52.996;9.124;2022-12-05T19:42:16;21.70;;;13.53;;
25980;SDS011;13772;52.996;9.124;2022-12-05T19:44:41;21.23;;;13.23;;
25980;SDS011;13772;52.996;9.124;2022-12-05T19:47:06;20.67;;;12.83;;
25980;SDS011;13772;52.996;9.124;2022-12-05T19:49:32;16.73;;;10.23;;
25980;SDS011;13772;52.996;9.124;2022-12-05T19:51:57;17.73;;;10.98;;
25980;SDS011;13772;52.996;9.124;2022-12-05T19:54:22;15.27;;;9.83;;
25980;SDS011;13772;52.996;9.124;2022-12-05T19:56:48;19.33;;;10.50;;
25980;SDS011;13772;52.996;9.124;2022-12-05T19:59:13;16.65;;;10.68;;
25980;SDS011;13772;52.996;9.124;2022-12-05T20:01:40;17.33;;;11.40;;
25980;SDS011;13772;52.996;9.124;2022-12-05T20:04:13;18.35;;;11.27;;
25980;SDS011;13772;52.996;9.124;2022-12-05T20:06:42;20.10;;;12.30;;
25980;SDS011;13772;52.996;9.124;2022-12-05T20:09:09;18.80;;;12.27;;
25980;SDS011;13772;52.996;9.124;2022-12-05T20:11:36;20.03;;;12.03;;
25980;SDS011;13772;52.996;9.124;2022-12-05T20:14:02;19.43;;;11.47;;
25980;SDS011;13772;52.996;9.124;2022-12-05T20:16:27;18.57;;;11.97;;
25980;SDS011;13772;52.996;9.124;2022-12-05T20:18:53;19.92;;;12.35;;
25980;SDS011;13772;52.996;9.124;2022-12-05T20:21:20;18.70;;;11.80;;
25980;SDS011;13772;52.996;9.124;2022-12-05T20:23:46;19.07;;;11.63;;
25980;SDS011;13772;52.996;9.124;2022-12-05T20:26:12;20.77;;;11.57;;
25980;SDS011;13772;52.996;9.124;2022-12-05T20:28:38;21.23;;;13.45;;
25980;SDS011;13772;52.996;9.124;2022-12-05T20:31:05;26.00;;;12.93;;
25980;SDS011;13772;52.996;9.124;2022-12-05T20:33:30;22.40;;;14.20;;
25980;SDS011;13772;52.996;9.124;2022-12-05T20:35:59;21.60;;;14.07;;
25980;SDS011;13772;52.996;9.124;2022-12-05T20:38:24;21.75;;;13.63;;
25980;SDS011;13772;52.996;9.124;2022-12-05T20:40:49;23.30;;;13.60;;
25980;SDS011;13772;52.996;9.124;2022-12-05T20:43:14;21.13;;;13.90;;
25980;SDS011;13772;52.996;9.124;2022-12-05T20:45:39;22.80;;;13.63;;
25980;SDS011;13772;52.996;9.124;2022-12-05T20:48:05;20.10;;;13.20;;
25980;SDS011;13772;52.996;9.124;2022-12-05T20:50:30;22.80;;;13.40;;
25980;SDS011;13772;52.996;9.124;2022-12-05T20:52:57;22.60;;;12.33;;
25980;SDS011;13772;52.996;9.124;2022-12-05T20:55:23;20.60;;;12.85;;
25980;SDS011;13772;52.996;9.124;2022-12-05T20:57:48;23.13;;;13.47;;
25980;SDS011;13772;52.996;9.124;2022-12-05T21:00:13;24.00;;;12.70;;
25980;SDS011;13772;52.996;9.124;2022-12-05T21:02:39;21.48;;;12.45;;
25980;SDS011;13772;52.996;9.124;2022-12-05T21:05:04;17.80;;;11.83;;
25980;SDS011;13772;52.996;9.124;2022-12-05T21:07:29;23.10;;;13.20;;
25980;SDS011;13772;52.996;9.124;2022-12-05T21:09:55;25.63;;;13.73;;
25980;SDS011;13772;52.996;9.124;2022-12-05T21:12:20;27.05;;;13.85;;
25980;SDS011;13772;52.996;9.124;2022-12-05T21:14:45;26.00;;;13.77;;
25980;SDS011;13772;52.996;9.124;2022-12-05T21:17:11;24.17;;;12.98;;
25980;SDS011;13772;52.996;9.124;2022-12-05T21:19:37;23.92;;;13.40;;
25980;SDS011;13772;52.996;9.124;2022-12-05T21:22:03;21.63;;;12.75;;
25980;SDS011;13772;52.996;9.124;2022-12-05T21:24:28;21.33;;;12.53;;
25980;SDS011;13772;52.996;9.124;2022-12-05T21:26:53;20.90;;;13.03;;
25980;SDS011;13772;52.996;9.124;2022-12-05T21:29:19;21.63;;;12.98;;
25980;SDS011;13772;52.996;9.124;2022-12-05T21:31:44;21.10;;;12.95;;
25980;SDS011;13772;52.996;9.124;2022-12-05T21:34:13;20.60;;;12.73;;
25980;SDS011;13772;52.996;9.124;2022-12-05T21:39:04;21.70;;;12.07;;
25980;SDS011;13772;52.996;9.124;2022-12-05T21:41:32;19.63;;;11.77;;
25980;SDS011;13772;52.996;9.124;2022-12-05T21:43:58;22.33;;;13.53;;
25980;SDS011;13772;52.996;9.124;2022-12-05T21:46:24;21.15;;;11.50;;
25980;SDS011;13772;52.996;9.124;2022-12-05T21:48:49;19.25;;;12.02;;
25980;SDS011;13772;52.996;9.124;2022-12-05T21:51:14;17.53;;;11.03;;
25980;SDS011;13772;52.996;9.124;2022-12-05T21:53:40;20.20;;;11.95;;
25980;SDS011;13772;52.996;9.124;2022-12-05T21:56:06;19.20;;;11.77;;
25980;SDS011;13772;52.996;9.124;2022-12-05T21:58:32;19.55;;;11.27;;
25980;SDS011;13772;52.996;9.124;2022-12-05T22:00:58;20.75;;;11.88;;
25980;SDS011;13772;52.996;9.124;2022-12-05T22:03:23;24.65;;;12.55;;
25980;SDS011;13772;52.996;9.124;2022-12-05T22:05:48;24.00;;;12.57;;
25980;SDS011;13772;52.996;9.124;2022-12-05T22:08:14;18.50;;;11.32;;
25980;SDS011;13772;52.996;9.124;2022-12-05T22:10:39;20.80;;;11.67;;
25980;SDS011;13772;52.996;9.124;2022-12-05T22:13:05;22.60;;;12.57;;
25980;SDS011;13772;52.996;9.124;2022-12-05T22:15:30;24.83;;;13.48;;
25980;SDS011;13772;52.996;9.124;2022-12-05T22:17:55;25.97;;;15.60;;
25980;SDS011;13772;52.996;9.124;2022-12-05T22:20:20;23.47;;;14.13;;
25980;SDS011;13772;52.996;9.124;2022-12-05T22:22:46;17.88;;;12.32;;
25980;SDS011;13772;52.996;9.124;2022-12-05T22:25:11;19.77;;;13.27;;
25980;SDS011;13772;52.996;9.124;2022-12-05T22:27:36;22.50;;;13.60;;
25980;SDS011;13772;52.996;9.124;2022-12-05T22:30:02;23.60;;;14.03;;
25980;SDS011;13772;52.996;9.124;2022-12-05T22:32:27;21.50;;;13.65;;
25980;SDS011;13772;52.996;9.124;2022-12-05T22:34:52;23.90;;;14.27;;
25980;SDS011;13772;52.996;9.124;2022-12-05T22:37:17;21.83;;;13.52;;
25980;SDS011;13772;52.996;9.124;2022-12-05T22:39:43;24.43;;;15.30;;
25980;SDS011;13772;52.996;9.124;2022-12-05T22:42:08;21.13;;;15.15;;
25980;SDS011;13772;52.996;9.124;2022-12-05T22:44:33;21.37;;;14.07;;
